sensor_id;sensor_type;location;lat;lon;timestamp;P1;durP1;ratioP1;P2;durP2;ratioP2
80539;SDS011;69869;48.036;15.780;2024-03-08T00:02:13;18.45;;;13.75;;
80539;SDS011;69869;48.036;15.780;2024-03-08T00:04:39;18.50;;;13.65;;
80539;SDS011;69869;48.036;15.780;2024-03-08T00:07:05;18.27;;;12.98;;
80539;SDS011;69869;48.036;15.780;2024-03-08T00:09:32;17.50;;;13.25;;
80539;SDS011;69869;48.036;15.780;2024-03-08T00:11:57;16.67;;;13.15;;
80539;SDS011;69869;48.036;15.780;2024-03-08T00:14:23;17.40;;;12.88;;
80539;SDS011;69869;48.036;15.780;2024-03-08T00:16:49;19.55;;;13.85;;
80539;SDS011;69869;48.036;15.780;2024-03-08T00:19:14;17.77;;;13.25;;
80539;SDS011;69869;48.036;15.780;2024-03-08T00:21:40;18.00;;;13.10;;
80539;SDS011;69869;48.036;15.780;2024-03-08T00:24:07;20.27;;;14.40;;
80539;SDS011;69869;48.036;15.780;2024-03-08T00:26:33;18.60;;;13.45;;
80539;SDS011;69869;48.036;15.780;2024-03-08T00:28:58;18.80;;;14.05;;
80539;SDS011;69869;48.036;15.780;2024-03-08T00:31:24;19.10;;;14.15;;
80539;SDS011;69869;48.036;15.780;2024-03-08T00:33:50;17.35;;;13.13;;
80539;SDS011;69869;48.036;15.780;2024-03-08T00:36:16;16.98;;;13.13;;
80539;SDS011;69869;48.036;15.780;2024-03-08T00:38:41;17.35;;;13.15;;
80539;SDS011;69869;48.036;15.780;2024-03-08T00:41:07;19.38;;;13.60;;
80539;SDS011;69869;48.036;15.780;2024-03-08T00:43:33;18.60;;;13.60;;
80539;SDS011;69869;48.036;15.780;2024-03-08T00:45:59;17.92;;;13.48;;
80539;SDS011;69869;48.036;15.780;2024-03-08T00:48:26;18.58;;;13.43;;
80539;SDS011;69869;48.036;15.780;2024-03-08T00:50:52;20.35;;;14.02;;
80539;SDS011;69869;48.036;15.780;2024-03-08T00:53:18;18.33;;;14.18;;
80539;SDS011;69869;48.036;15.780;2024-03-08T00:55:44;18.13;;;13.48;;
80539;SDS011;69869;48.036;15.780;2024-03-08T00:58:11;16.85;;;12.93;;
80539;SDS011;69869;48.036;15.780;2024-03-08T01:00:37;17.65;;;13.15;;
80539;SDS011;69869;48.036;15.780;2024-03-08T01:03:04;17.63;;;13.30;;
80539;SDS011;69869;48.036;15.780;2024-03-08T01:05:30;18.65;;;13.90;;
80539;SDS011;69869;48.036;15.780;2024-03-08T01:07:55;18.33;;;13.13;;
80539;SDS011;69869;48.036;15.780;2024-03-08T01:10:21;17.35;;;13.07;;
80539;SDS011;69869;48.036;15.780;2024-03-08T01:12:47;18.77;;;13.85;;
80539;SDS011;69869;48.036;15.780;2024-03-08T01:15:14;17.90;;;12.63;;
80539;SDS011;69869;48.036;15.780;2024-03-08T01:17:40;18.88;;;13.73;;
80539;SDS011;69869;48.036;15.780;2024-03-08T01:20:06;17.17;;;12.55;;
80539;SDS011;69869;48.036;15.780;2024-03-08T01:22:35;20.42;;;14.40;;
80539;SDS011;69869;48.036;15.780;2024-03-08T01:25:01;16.55;;;12.77;;
80539;SDS011;69869;48.036;15.780;2024-03-08T01:27:29;19.65;;;13.73;;
80539;SDS011;69869;48.036;15.780;2024-03-08T01:29:56;18.08;;;13.60;;
80539;SDS011;69869;48.036;15.780;2024-03-08T01:32:21;19.80;;;13.75;;
80539;SDS011;69869;48.036;15.780;2024-03-08T01:34:48;18.48;;;13.73;;
80539;SDS011;69869;48.036;15.780;2024-03-08T01:37:14;18.38;;;13.68;;
80539;SDS011;69869;48.036;15.780;2024-03-08T01:39:40;19.15;;;14.50;;
80539;SDS011;69869;48.036;15.780;2024-03-08T01:42:05;18.98;;;13.98;;
80539;SDS011;69869;48.036;15.780;2024-03-08T01:44:31;19.30;;;13.82;;
80539;SDS011;69869;48.036;15.780;2024-03-08T01:46:57;18.85;;;13.88;;
80539;SDS011;69869;48.036;15.780;2024-03-08T01:49:22;18.30;;;13.73;;
80539;SDS011;69869;48.036;15.780;2024-03-08T01:51:51;18.55;;;14.13;;
80539;SDS011;69869;48.036;15.780;2024-03-08T01:54:17;18.40;;;14.25;;
80539;SDS011;69869;48.036;15.780;2024-03-08T01:56:44;18.05;;;13.23;;
80539;SDS011;69869;48.036;15.780;2024-03-08T01:59:11;16.65;;;12.98;;
80539;SDS011;69869;48.036;15.780;2024-03-08T02:01:37;18.98;;;13.90;;
80539;SDS011;69869;48.036;15.780;2024-03-08T02:04:03;17.00;;;13.40;;
80539;SDS011;69869;48.036;15.780;2024-03-08T02:06:31;18.90;;;14.05;;
80539;SDS011;69869;48.036;15.780;2024-03-08T02:08:56;19.92;;;14.10;;
80539;SDS011;69869;48.036;15.780;2024-03-08T02:11:22;19.27;;;13.60;;
80539;SDS011;69869;48.036;15.780;2024-03-08T02:13:48;18.80;;;14.00;;
80539;SDS011;69869;48.036;15.780;2024-03-08T02:16:19;19.10;;;13.40;;
80539;SDS011;69869;48.036;15.780;2024-03-08T02:18:46;18.63;;;13.73;;
80539;SDS011;69869;48.036;15.780;2024-03-08T02:21:12;17.17;;;13.88;;
80539;SDS011;69869;48.036;15.780;2024-03-08T02:26:14;17.58;;;13.38;;
80539;SDS011;69869;48.036;15.780;2024-03-08T02:28:39;18.70;;;14.00;;
80539;SDS011;69869;48.036;15.780;2024-03-08T02:31:07;18.50;;;13.00;;
80539;SDS011;69869;48.036;15.780;2024-03-08T02:33:33;18.00;;;13.60;;
80539;SDS011;69869;48.036;15.780;2024-03-08T02:35:59;20.48;;;13.65;;
80539;SDS011;69869;48.036;15.780;2024-03-08T02:38:25;21.70;;;13.93;;
80539;SDS011;69869;48.036;15.780;2024-03-08T02:40:52;17.40;;;13.82;;
80539;SDS011;69869;48.036;15.780;2024-03-08T02:43:19;18.60;;;13.93;;
80539;SDS011;69869;48.036;15.780;2024-03-08T02:45:47;16.45;;;12.13;;
80539;SDS011;69869;48.036;15.780;2024-03-08T02:48:13;16.90;;;13.13;;
80539;SDS011;69869;48.036;15.780;2024-03-08T02:50:39;17.33;;;12.45;;
80539;SDS011;69869;48.036;15.780;2024-03-08T02:53:07;15.95;;;13.00;;
80539;SDS011;69869;48.036;15.780;2024-03-08T02:55:33;18.45;;;13.90;;
80539;SDS011;69869;48.036;15.780;2024-03-08T02:58:01;17.30;;;12.88;;
80539;SDS011;69869;48.036;15.780;2024-03-08T03:00:28;18.42;;;13.48;;
80539;SDS011;69869;48.036;15.780;2024-03-08T03:02:55;17.67;;;13.00;;
80539;SDS011;69869;48.036;15.780;2024-03-08T03:05:24;17.98;;;13.15;;
80539;SDS011;69869;48.036;15.780;2024-03-08T03:07:50;19.50;;;12.93;;
80539;SDS011;69869;48.036;15.780;2024-03-08T03:10:19;16.65;;;12.77;;
80539;SDS011;69869;48.036;15.780;2024-03-08T03:12:46;16.80;;;12.90;;
80539;SDS011;69869;48.036;15.780;2024-03-08T03:15:13;15.98;;;12.98;;
80539;SDS011;69869;48.036;15.780;2024-03-08T03:17:44;20.20;;;13.90;;
80539;SDS011;69869;48.036;15.780;2024-03-08T03:20:15;16.35;;;12.88;;
80539;SDS011;69869;48.036;15.780;2024-03-08T03:22:47;15.93;;;12.68;;
80539;SDS011;69869;48.036;15.780;2024-03-08T03:25:17;17.67;;;12.93;;
80539;SDS011;69869;48.036;15.780;2024-03-08T03:27:54;16.73;;;12.48;;
80539;SDS011;69869;48.036;15.780;2024-03-08T03:30:22;18.67;;;13.90;;
80539;SDS011;69869;48.036;15.780;2024-03-08T03:32:48;16.60;;;12.55;;
80539;SDS011;69869;48.036;15.780;2024-03-08T03:35:16;17.15;;;13.43;;
80539;SDS011;69869;48.036;15.780;2024-03-08T03:37:42;17.25;;;12.82;;
80539;SDS011;69869;48.036;15.780;2024-03-08T03:40:16;16.40;;;12.32;;
80539;SDS011;69869;48.036;15.780;2024-03-08T03:42:43;14.90;;;11.63;;
80539;SDS011;69869;48.036;15.780;2024-03-08T03:45:10;17.73;;;13.00;;
80539;SDS011;69869;48.036;15.780;2024-03-08T03:47:36;16.80;;;12.85;;
80539;SDS011;69869;48.036;15.780;2024-03-08T03:50:03;15.73;;;12.00;;
80539;SDS011;69869;48.036;15.780;2024-03-08T03:52:30;15.55;;;12.20;;
80539;SDS011;69869;48.036;15.780;2024-03-08T03:54:56;14.88;;;12.05;;
80539;SDS011;69869;48.036;15.780;2024-03-08T03:57:22;17.13;;;13.18;;
80539;SDS011;69869;48.036;15.780;2024-03-08T03:59:48;15.98;;;12.43;;
80539;SDS011;69869;48.036;15.780;2024-03-08T04:02:15;17.20;;;12.40;;
80539;SDS011;69869;48.036;15.780;2024-03-08T04:04:42;17.60;;;13.63;;
80539;SDS011;69869;48.036;15.780;2024-03-08T04:07:07;16.25;;;12.77;;
80539;SDS011;69869;48.036;15.780;2024-03-08T04:09:35;16.10;;;12.55;;
80539;SDS011;69869;48.036;15.780;2024-03-08T04:12:00;16.90;;;12.90;;
80539;SDS011;69869;48.036;15.780;2024-03-08T04:14:26;16.30;;;12.25;;
80539;SDS011;69869;48.036;15.780;2024-03-08T04:16:52;16.25;;;12.55;;
80539;SDS011;69869;48.036;15.780;2024-03-08T04:19:17;15.65;;;12.07;;
80539;SDS011;69869;48.036;15.780;2024-03-08T04:21:44;17.27;;;12.80;;
80539;SDS011;69869;48.036;15.780;2024-03-08T04:24:09;17.13;;;13.30;;
80539;SDS011;69869;48.036;15.780;2024-03-08T04:26:35;15.23;;;11.93;;
80539;SDS011;69869;48.036;15.780;2024-03-08T04:29:01;18.00;;;13.27;;
80539;SDS011;69869;48.036;15.780;2024-03-08T04:31:28;17.83;;;13.02;;
80539;SDS011;69869;48.036;15.780;2024-03-08T04:33:53;17.98;;;13.00;;
80539;SDS011;69869;48.036;15.780;2024-03-08T04:36:19;15.90;;;12.50;;
80539;SDS011;69869;48.036;15.780;2024-03-08T04:38:45;17.02;;;12.48;;
80539;SDS011;69869;48.036;15.780;2024-03-08T04:41:11;16.40;;;13.00;;
80539;SDS011;69869;48.036;15.780;2024-03-08T04:43:36;18.85;;;13.23;;
80539;SDS011;69869;48.036;15.780;2024-03-08T04:46:02;16.27;;;12.32;;
80539;SDS011;69869;48.036;15.780;2024-03-08T04:48:28;15.57;;;12.48;;
80539;SDS011;69869;48.036;15.780;2024-03-08T04:50:54;16.30;;;12.30;;
80539;SDS011;69869;48.036;15.780;2024-03-08T04:53:20;16.98;;;12.85;;
80539;SDS011;69869;48.036;15.780;2024-03-08T04:55:46;16.02;;;12.38;;
80539;SDS011;69869;48.036;15.780;2024-03-08T04:58:12;15.82;;;12.13;;
80539;SDS011;69869;48.036;15.780;2024-03-08T05:00:37;17.02;;;12.35;;
80539;SDS011;69869;48.036;15.780;2024-03-08T05:03:03;15.10;;;11.95;;
80539;SDS011;69869;48.036;15.780;2024-03-08T05:05:29;17.00;;;12.77;;
80539;SDS011;69869;48.036;15.780;2024-03-08T05:07:56;16.15;;;12.50;;
80539;SDS011;69869;48.036;15.780;2024-03-08T05:10:21;18.08;;;12.85;;
80539;SDS011;69869;48.036;15.780;2024-03-08T05:12:47;16.70;;;12.43;;
80539;SDS011;69869;48.036;15.780;2024-03-08T05:15:12;15.63;;;11.70;;
80539;SDS011;69869;48.036;15.780;2024-03-08T05:17:39;15.82;;;12.63;;
80539;SDS011;69869;48.036;15.780;2024-03-08T05:20:05;17.08;;;12.85;;
80539;SDS011;69869;48.036;15.780;2024-03-08T05:22:37;17.25;;;12.80;;
80539;SDS011;69869;48.036;15.780;2024-03-08T05:25:03;14.90;;;12.13;;
80539;SDS011;69869;48.036;15.780;2024-03-08T05:27:29;16.75;;;12.18;;
80539;SDS011;69869;48.036;15.780;2024-03-08T05:29:54;15.95;;;12.20;;
80539;SDS011;69869;48.036;15.780;2024-03-08T05:32:20;15.85;;;12.02;;
80539;SDS011;69869;48.036;15.780;2024-03-08T05:34:46;17.60;;;12.65;;
80539;SDS011;69869;48.036;15.780;2024-03-08T05:37:11;16.42;;;12.43;;
80539;SDS011;69869;48.036;15.780;2024-03-08T05:39:37;15.88;;;12.35;;
80539;SDS011;69869;48.036;15.780;2024-03-08T05:42:03;16.58;;;12.38;;
80539;SDS011;69869;48.036;15.780;2024-03-08T05:44:29;15.23;;;12.27;;
80539;SDS011;69869;48.036;15.780;2024-03-08T05:46:55;18.73;;;13.07;;
80539;SDS011;69869;48.036;15.780;2024-03-08T05:49:21;14.98;;;12.38;;
80539;SDS011;69869;48.036;15.780;2024-03-08T05:51:47;15.35;;;12.32;;
80539;SDS011;69869;48.036;15.780;2024-03-08T05:54:13;16.23;;;12.02;;
80539;SDS011;69869;48.036;15.780;2024-03-08T05:56:39;15.63;;;12.25;;
80539;SDS011;69869;48.036;15.780;2024-03-08T05:59:09;14.50;;;11.75;;
80539;SDS011;69869;48.036;15.780;2024-03-08T06:01:35;14.85;;;11.43;;
80539;SDS011;69869;48.036;15.780;2024-03-08T06:04:01;15.10;;;11.57;;
80539;SDS011;69869;48.036;15.780;2024-03-08T06:06:27;16.42;;;12.45;;
80539;SDS011;69869;48.036;15.780;2024-03-08T06:08:53;14.15;;;11.63;;
80539;SDS011;69869;48.036;15.780;2024-03-08T06:11:21;13.90;;;11.55;;
80539;SDS011;69869;48.036;15.780;2024-03-08T06:13:47;16.75;;;11.68;;
80539;SDS011;69869;48.036;15.780;2024-03-08T06:16:14;15.02;;;11.80;;
80539;SDS011;69869;48.036;15.780;2024-03-08T06:18:40;12.77;;;10.88;;
80539;SDS011;69869;48.036;15.780;2024-03-08T06:21:06;14.77;;;11.57;;
80539;SDS011;69869;48.036;15.780;2024-03-08T06:23:34;15.45;;;11.30;;
80539;SDS011;69869;48.036;15.780;2024-03-08T06:26:06;15.32;;;11.48;;
80539;SDS011;69869;48.036;15.780;2024-03-08T06:28:32;15.00;;;11.95;;
80539;SDS011;69869;48.036;15.780;2024-03-08T06:30:59;14.00;;;10.85;;
80539;SDS011;69869;48.036;15.780;2024-03-08T06:33:25;14.32;;;11.38;;
80539;SDS011;69869;48.036;15.780;2024-03-08T06:35:51;14.27;;;11.25;;
80539;SDS011;69869;48.036;15.780;2024-03-08T06:38:17;13.85;;;11.02;;
80539;SDS011;69869;48.036;15.780;2024-03-08T06:40:44;14.43;;;11.38;;
80539;SDS011;69869;48.036;15.780;2024-03-08T06:43:13;13.90;;;10.95;;
80539;SDS011;69869;48.036;15.780;2024-03-08T06:45:43;14.13;;;10.77;;
80539;SDS011;69869;48.036;15.780;2024-03-08T06:48:16;13.15;;;10.27;;
80539;SDS011;69869;48.036;15.780;2024-03-08T06:50:45;13.70;;;11.13;;
80539;SDS011;69869;48.036;15.780;2024-03-08T06:53:12;13.52;;;10.70;;
80539;SDS011;69869;48.036;15.780;2024-03-08T06:55:38;13.65;;;10.73;;
80539;SDS011;69869;48.036;15.780;2024-03-08T06:58:04;13.70;;;10.57;;
80539;SDS011;69869;48.036;15.780;2024-03-08T07:00:31;13.75;;;10.48;;
80539;SDS011;69869;48.036;15.780;2024-03-08T07:02:58;14.15;;;10.63;;
80539;SDS011;69869;48.036;15.780;2024-03-08T07:05:28;13.18;;;10.63;;
80539;SDS011;69869;48.036;15.780;2024-03-08T07:07:55;13.48;;;10.15;;
80539;SDS011;69869;48.036;15.780;2024-03-08T07:10:21;14.18;;;10.15;;
80539;SDS011;69869;48.036;15.780;2024-03-08T07:12:49;13.02;;;10.27;;
80539;SDS011;69869;48.036;15.780;2024-03-08T07:15:15;13.63;;;10.38;;
80539;SDS011;69869;48.036;15.780;2024-03-08T07:17:41;12.15;;;10.43;;
80539;SDS011;69869;48.036;15.780;2024-03-08T07:20:09;12.48;;;9.85;;
80539;SDS011;69869;48.036;15.780;2024-03-08T07:22:37;11.50;;;9.63;;
80539;SDS011;69869;48.036;15.780;2024-03-08T07:25:06;12.95;;;10.18;;
80539;SDS011;69869;48.036;15.780;2024-03-08T07:27:32;12.32;;;9.85;;
80539;SDS011;69869;48.036;15.780;2024-03-08T07:30:01;12.45;;;9.95;;
80539;SDS011;69869;48.036;15.780;2024-03-08T07:32:28;13.65;;;10.45;;
80539;SDS011;69869;48.036;15.780;2024-03-08T07:34:55;13.55;;;10.35;;
80539;SDS011;69869;48.036;15.780;2024-03-08T07:37:21;11.73;;;9.65;;
80539;SDS011;69869;48.036;15.780;2024-03-08T07:39:47;12.00;;;9.70;;
80539;SDS011;69869;48.036;15.780;2024-03-08T07:42:12;11.43;;;9.40;;
80539;SDS011;69869;48.036;15.780;2024-03-08T07:44:38;10.98;;;9.60;;
80539;SDS011;69869;48.036;15.780;2024-03-08T07:47:04;12.77;;;10.30;;
80539;SDS011;69869;48.036;15.780;2024-03-08T07:49:34;11.02;;;9.38;;
80539;SDS011;69869;48.036;15.780;2024-03-08T07:52:00;11.60;;;9.40;;
80539;SDS011;69869;48.036;15.780;2024-03-08T07:54:25;11.27;;;9.80;;
80539;SDS011;69869;48.036;15.780;2024-03-08T07:56:51;10.70;;;8.88;;
80539;SDS011;69869;48.036;15.780;2024-03-08T07:59:17;11.15;;;8.95;;
80539;SDS011;69869;48.036;15.780;2024-03-08T08:01:43;10.68;;;9.00;;
80539;SDS011;69869;48.036;15.780;2024-03-08T08:04:09;12.75;;;9.65;;
80539;SDS011;69869;48.036;15.780;2024-03-08T08:06:38;10.45;;;8.70;;
80539;SDS011;69869;48.036;15.780;2024-03-08T08:09:06;12.27;;;9.45;;
80539;SDS011;69869;48.036;15.780;2024-03-08T08:11:39;12.25;;;9.18;;
80539;SDS011;69869;48.036;15.780;2024-03-08T08:14:11;11.38;;;9.10;;
80539;SDS011;69869;48.036;15.780;2024-03-08T08:16:37;11.27;;;9.15;;
80539;SDS011;69869;48.036;15.780;2024-03-08T08:19:03;10.10;;;8.35;;
80539;SDS011;69869;48.036;15.780;2024-03-08T08:21:35;11.13;;;9.40;;
80539;SDS011;69869;48.036;15.780;2024-03-08T08:24:04;10.95;;;8.95;;
80539;SDS011;69869;48.036;15.780;2024-03-08T08:26:30;12.23;;;9.45;;
80539;SDS011;69869;48.036;15.780;2024-03-08T08:28:55;11.48;;;9.27;;
80539;SDS011;69869;48.036;15.780;2024-03-08T08:31:21;10.40;;;8.45;;
80539;SDS011;69869;48.036;15.780;2024-03-08T08:33:47;11.68;;;8.73;;
80539;SDS011;69869;48.036;15.780;2024-03-08T08:36:18;10.43;;;8.57;;
80539;SDS011;69869;48.036;15.780;2024-03-08T08:38:44;11.75;;;8.57;;
80539;SDS011;69869;48.036;15.780;2024-03-08T08:41:10;9.60;;;8.18;;
80539;SDS011;69869;48.036;15.780;2024-03-08T08:43:36;10.38;;;8.75;;
80539;SDS011;69869;48.036;15.780;2024-03-08T08:46:02;9.63;;;7.93;;
80539;SDS011;69869;48.036;15.780;2024-03-08T08:48:28;10.40;;;8.65;;
80539;SDS011;69869;48.036;15.780;2024-03-08T08:50:54;8.60;;;7.70;;
80539;SDS011;69869;48.036;15.780;2024-03-08T08:53:20;10.65;;;8.60;;
80539;SDS011;69869;48.036;15.780;2024-03-08T08:55:46;8.93;;;7.75;;
80539;SDS011;69869;48.036;15.780;2024-03-08T08:58:12;10.38;;;8.45;;
80539;SDS011;69869;48.036;15.780;2024-03-08T09:00:38;8.75;;;7.75;;
80539;SDS011;69869;48.036;15.780;2024-03-08T09:03:04;7.75;;;6.95;;
80539;SDS011;69869;48.036;15.780;2024-03-08T09:05:31;9.63;;;7.30;;
80539;SDS011;69869;48.036;15.780;2024-03-08T09:07:58;7.90;;;7.00;;
80539;SDS011;69869;48.036;15.780;2024-03-08T09:10:25;9.50;;;8.05;;
80539;SDS011;69869;48.036;15.780;2024-03-08T09:12:50;8.43;;;7.07;;
80539;SDS011;69869;48.036;15.780;2024-03-08T09:15:16;8.52;;;7.32;;
80539;SDS011;69869;48.036;15.780;2024-03-08T09:17:42;8.45;;;7.35;;
80539;SDS011;69869;48.036;15.780;2024-03-08T09:20:09;8.73;;;7.18;;
80539;SDS011;69869;48.036;15.780;2024-03-08T09:22:39;8.68;;;7.30;;
80539;SDS011;69869;48.036;15.780;2024-03-08T09:25:06;7.25;;;6.55;;
80539;SDS011;69869;48.036;15.780;2024-03-08T09:27:32;7.70;;;6.65;;
80539;SDS011;69869;48.036;15.780;2024-03-08T09:29:59;8.25;;;7.35;;
80539;SDS011;69869;48.036;15.780;2024-03-08T09:32:26;7.78;;;6.90;;
80539;SDS011;69869;48.036;15.780;2024-03-08T09:34:51;7.90;;;6.88;;
80539;SDS011;69869;48.036;15.780;2024-03-08T09:37:17;7.30;;;6.53;;
80539;SDS011;69869;48.036;15.780;2024-03-08T09:39:44;8.05;;;6.88;;
80539;SDS011;69869;48.036;15.780;2024-03-08T09:42:09;6.97;;;6.28;;
80539;SDS011;69869;48.036;15.780;2024-03-08T09:44:39;6.63;;;5.90;;
80539;SDS011;69869;48.036;15.780;2024-03-08T09:47:09;7.90;;;6.78;;
80539;SDS011;69869;48.036;15.780;2024-03-08T09:49:38;7.20;;;6.50;;
80539;SDS011;69869;48.036;15.780;2024-03-08T09:52:05;6.63;;;5.93;;
80539;SDS011;69869;48.036;15.780;2024-03-08T09:54:32;6.95;;;6.18;;
80539;SDS011;69869;48.036;15.780;2024-03-08T09:56:59;6.93;;;6.22;;
80539;SDS011;69869;48.036;15.780;2024-03-08T09:59:24;6.88;;;6.15;;
80539;SDS011;69869;48.036;15.780;2024-03-08T10:01:50;7.13;;;6.00;;
80539;SDS011;69869;48.036;15.780;2024-03-08T10:04:17;7.07;;;6.30;;
80539;SDS011;69869;48.036;15.780;2024-03-08T10:06:45;7.40;;;6.60;;
80539;SDS011;69869;48.036;15.780;2024-03-08T10:09:12;7.10;;;6.40;;
80539;SDS011;69869;48.036;15.780;2024-03-08T10:11:39;7.25;;;6.35;;
80539;SDS011;69869;48.036;15.780;2024-03-08T10:14:05;7.53;;;6.47;;
80539;SDS011;69869;48.036;15.780;2024-03-08T10:16:32;7.00;;;6.00;;
80539;SDS011;69869;48.036;15.780;2024-03-08T10:18:59;6.25;;;5.65;;
80539;SDS011;69869;48.036;15.780;2024-03-08T10:21:25;6.47;;;5.78;;
80539;SDS011;69869;48.036;15.780;2024-03-08T10:23:52;6.32;;;5.70;;
80539;SDS011;69869;48.036;15.780;2024-03-08T10:26:18;6.90;;;6.20;;
80539;SDS011;69869;48.036;15.780;2024-03-08T10:28:46;6.50;;;5.90;;
80539;SDS011;69869;48.036;15.780;2024-03-08T10:31:13;6.50;;;5.80;;
80539;SDS011;69869;48.036;15.780;2024-03-08T10:33:40;7.03;;;6.32;;
80539;SDS011;69869;48.036;15.780;2024-03-08T10:36:09;6.53;;;5.90;;
80539;SDS011;69869;48.036;15.780;2024-03-08T10:38:38;6.53;;;5.93;;
80539;SDS011;69869;48.036;15.780;2024-03-08T10:41:05;6.82;;;5.50;;
80539;SDS011;69869;48.036;15.780;2024-03-08T10:43:36;6.05;;;5.45;;
80539;SDS011;69869;48.036;15.780;2024-03-08T10:49:38;6.75;;;6.07;;
80539;SDS011;69869;48.036;15.780;2024-03-08T10:52:15;6.90;;;5.95;;
80539;SDS011;69869;48.036;15.780;2024-03-08T10:54:42;6.07;;;5.40;;
80539;SDS011;69869;48.036;15.780;2024-03-08T10:57:09;6.30;;;5.68;;
80539;SDS011;69869;48.036;15.780;2024-03-08T10:59:38;6.07;;;5.45;;
80539;SDS011;69869;48.036;15.780;2024-03-08T11:02:04;6.10;;;5.50;;
80539;SDS011;69869;48.036;15.780;2024-03-08T11:04:31;5.93;;;5.32;;
80539;SDS011;69869;48.036;15.780;2024-03-08T11:07:01;6.93;;;5.85;;
80539;SDS011;69869;48.036;15.780;2024-03-08T11:09:31;6.68;;;5.90;;
80539;SDS011;69869;48.036;15.780;2024-03-08T11:14:52;7.38;;;5.70;;
80539;SDS011;69869;48.036;15.780;2024-03-08T11:17:25;5.95;;;5.38;;
80539;SDS011;69869;48.036;15.780;2024-03-08T11:20:12;6.30;;;5.70;;
80539;SDS011;69869;48.036;15.780;2024-03-08T11:22:52;6.80;;;5.43;;
80539;SDS011;69869;48.036;15.780;2024-03-08T11:25:40;6.53;;;5.22;;
80539;SDS011;69869;48.036;15.780;2024-03-08T11:28:20;6.63;;;5.15;;
80539;SDS011;69869;48.036;15.780;2024-03-08T11:33:27;6.90;;;5.47;;
80539;SDS011;69869;48.036;15.780;2024-03-08T11:38:42;5.97;;;5.38;;
80539;SDS011;69869;48.036;15.780;2024-03-08T11:41:09;6.60;;;5.97;;
80539;SDS011;69869;48.036;15.780;2024-03-08T11:43:39;5.60;;;5.05;;
80539;SDS011;69869;48.036;15.780;2024-03-08T11:46:08;5.78;;;5.22;;
80539;SDS011;69869;48.036;15.780;2024-03-08T11:48:34;5.82;;;4.93;;
80539;SDS011;69869;48.036;15.780;2024-03-08T11:51:03;6.53;;;4.85;;
80539;SDS011;69869;48.036;15.780;2024-03-08T11:53:30;5.40;;;4.90;;
80539;SDS011;69869;48.036;15.780;2024-03-08T11:56:05;6.05;;;5.22;;
80539;SDS011;69869;48.036;15.780;2024-03-08T11:58:38;5.38;;;4.88;;
80539;SDS011;69869;48.036;15.780;2024-03-08T12:01:06;5.55;;;5.05;;
80539;SDS011;69869;48.036;15.780;2024-03-08T12:03:39;5.85;;;5.25;;
80539;SDS011;69869;48.036;15.780;2024-03-08T12:06:07;5.47;;;4.75;;
80539;SDS011;69869;48.036;15.780;2024-03-08T12:08:38;5.43;;;4.90;;
80539;SDS011;69869;48.036;15.780;2024-03-08T12:11:04;5.07;;;4.60;;
80539;SDS011;69869;48.036;15.780;2024-03-08T12:13:31;5.30;;;4.80;;
80539;SDS011;69869;48.036;15.780;2024-03-08T12:15:59;5.80;;;5.20;;
80539;SDS011;69869;48.036;15.780;2024-03-08T12:18:25;5.22;;;4.72;;
80539;SDS011;69869;48.036;15.780;2024-03-08T12:21:03;4.80;;;4.40;;
80539;SDS011;69869;48.036;15.780;2024-03-08T12:23:36;5.13;;;4.38;;
80539;SDS011;69869;48.036;15.780;2024-03-08T12:26:13;4.95;;;4.53;;
80539;SDS011;69869;48.036;15.780;2024-03-08T12:28:39;5.18;;;4.68;;
80539;SDS011;69869;48.036;15.780;2024-03-08T12:31:07;4.80;;;4.40;;
80539;SDS011;69869;48.036;15.780;2024-03-08T12:33:56;5.38;;;4.82;;
80539;SDS011;69869;48.036;15.780;2024-03-08T12:36:23;4.88;;;4.45;;
80539;SDS011;69869;48.036;15.780;2024-03-08T12:38:50;5.43;;;4.45;;
80539;SDS011;69869;48.036;15.780;2024-03-08T12:41:16;5.03;;;4.53;;
80539;SDS011;69869;48.036;15.780;2024-03-08T12:43:44;4.90;;;4.40;;
80539;SDS011;69869;48.036;15.780;2024-03-08T12:46:15;5.20;;;4.60;;
80539;SDS011;69869;48.036;15.780;2024-03-08T12:48:42;4.75;;;4.35;;
80539;SDS011;69869;48.036;15.780;2024-03-08T12:51:11;4.80;;;4.30;;
80539;SDS011;69869;48.036;15.780;2024-03-08T12:53:42;4.57;;;4.18;;
80539;SDS011;69869;48.036;15.780;2024-03-08T12:56:11;4.93;;;4.53;;
80539;SDS011;69869;48.036;15.780;2024-03-08T12:58:37;4.90;;;4.43;;
80539;SDS011;69869;48.036;15.780;2024-03-08T13:01:04;4.30;;;3.90;;
80539;SDS011;69869;48.036;15.780;2024-03-08T13:03:32;4.55;;;4.15;;
80539;SDS011;69869;48.036;15.780;2024-03-08T13:05:59;4.60;;;4.20;;
80539;SDS011;69869;48.036;15.780;2024-03-08T13:08:25;4.70;;;4.30;;
80539;SDS011;69869;48.036;15.780;2024-03-08T13:10:54;4.60;;;4.20;;
80539;SDS011;69869;48.036;15.780;2024-03-08T13:13:20;4.13;;;3.72;;
80539;SDS011;69869;48.036;15.780;2024-03-08T13:15:45;4.55;;;4.00;;
80539;SDS011;69869;48.036;15.780;2024-03-08T13:18:11;4.10;;;3.70;;
80539;SDS011;69869;48.036;15.780;2024-03-08T13:20:37;4.25;;;3.85;;
80539;SDS011;69869;48.036;15.780;2024-03-08T13:23:03;4.75;;;4.13;;
80539;SDS011;69869;48.036;15.780;2024-03-08T13:25:30;4.30;;;3.90;;
80539;SDS011;69869;48.036;15.780;2024-03-08T13:27:56;4.60;;;4.20;;
80539;SDS011;69869;48.036;15.780;2024-03-08T13:30:24;4.03;;;3.72;;
80539;SDS011;69869;48.036;15.780;2024-03-08T13:32:52;4.45;;;4.05;;
80539;SDS011;69869;48.036;15.780;2024-03-08T13:35:18;4.28;;;3.95;;
80539;SDS011;69869;48.036;15.780;2024-03-08T13:37:49;4.35;;;3.83;;
80539;SDS011;69869;48.036;15.780;2024-03-08T13:40:16;4.32;;;3.92;;
80539;SDS011;69869;48.036;15.780;2024-03-08T13:42:45;4.18;;;3.78;;
80539;SDS011;69869;48.036;15.780;2024-03-08T13:45:11;3.97;;;3.67;;
80539;SDS011;69869;48.036;15.780;2024-03-08T13:47:38;3.95;;;3.58;;
80539;SDS011;69869;48.036;15.780;2024-03-08T13:50:07;3.67;;;3.38;;
80539;SDS011;69869;48.036;15.780;2024-03-08T13:52:37;3.83;;;3.53;;
80539;SDS011;69869;48.036;15.780;2024-03-08T13:55:03;4.03;;;3.67;;
80539;SDS011;69869;48.036;15.780;2024-03-08T13:57:30;4.07;;;3.67;;
80539;SDS011;69869;48.036;15.780;2024-03-08T13:59:57;3.60;;;3.30;;
80539;SDS011;69869;48.036;15.780;2024-03-08T14:02:23;3.50;;;3.20;;
80539;SDS011;69869;48.036;15.780;2024-03-08T14:04:53;3.80;;;3.50;;
80539;SDS011;69869;48.036;15.780;2024-03-08T14:07:19;3.72;;;3.42;;
80539;SDS011;69869;48.036;15.780;2024-03-08T14:09:45;4.13;;;3.78;;
80539;SDS011;69869;48.036;15.780;2024-03-08T14:12:11;3.78;;;3.47;;
80539;SDS011;69869;48.036;15.780;2024-03-08T14:14:37;3.60;;;3.30;;
80539;SDS011;69869;48.036;15.780;2024-03-08T14:17:02;3.92;;;3.58;;
80539;SDS011;69869;48.036;15.780;2024-03-08T14:19:28;3.60;;;3.30;;
80539;SDS011;69869;48.036;15.780;2024-03-08T14:21:59;3.78;;;3.47;;
80539;SDS011;69869;48.036;15.780;2024-03-08T14:24:24;3.75;;;3.45;;
80539;SDS011;69869;48.036;15.780;2024-03-08T14:26:50;3.97;;;3.67;;
80539;SDS011;69869;48.036;15.780;2024-03-08T14:29:16;3.60;;;3.30;;
80539;SDS011;69869;48.036;15.780;2024-03-08T14:31:43;3.70;;;3.40;;
80539;SDS011;69869;48.036;15.780;2024-03-08T14:34:10;3.75;;;3.45;;
80539;SDS011;69869;48.036;15.780;2024-03-08T14:36:35;3.50;;;3.20;;